Home > Products > Valid Products > TAF

000
FTUS42 KFFC 241400 AAA
TAFATL
TAF AMD
KATL 241406Z 2414/2518 31005KT P6SM FEW100 SCT250
     FM242000 30003KT P6SM SCT150
     FM250000 33005KT P6SM SKC=



000
FTUS42 KFFC 241100 CCA
TAFATL
TAF COR
KATL 241124Z 2412/2518 04005KT P6SM FEW150 BKN250
     FM241600 VRB03KT P6SM SCT150
     FM242000 30003KT P6SM SCT150
     FM250000 33005KT P6SM SKC=



000
FTUS42 KFFC 241100
TAFMCN
TAF
KMCN 241123Z 2412/2512 00000KT P6SM SCT250
     FM241600 VRB03KT P6SM SCT200
     FM250000 00000KT P6SM SKC=



000
FTUS42 KFFC 241100
TAFFTY
TAF
KFTY 241123Z 2412/2512 00000KT P6SM BKN250
     FM241600 VRB03KT P6SM SCT150
     FM250000 00000KT P6SM SKC=



000
FTUS42 KFFC 241100
TAFCSG
TAF
KCSG 241123Z 2412/2512 00000KT P6SM SCT250
     FM241600 VRB04KT P6SM FEW200
     FM250000 00000KT P6SM SKC=



000
FTUS42 KFFC 241100
TAFAHN
TAF
KAHN 241123Z 2412/2512 00000KT P6SM SCT250
     FM241600 VRB03KT P6SM SCT200
     FM250000 00000KT P6SM SKC=



000
FTUS42 KFFC 241100
TAFRYY
TAF
KRYY 241123Z 2412/2512 31003KT P6SM BKN250
     FM241600 VRB05KT P6SM SCT150
     FM250000 00000KT P6SM SKC=



000
FTUS42 KFFC 241100
TAFPDK
TAF
KPDK 241123Z 2412/2512 32003KT P6SM BKN250
     FM241600 VRB03KT P6SM SCT150
     FM250000 00000KT P6SM SKC=



000
FTUS42 KFFC 241100
TAFATL
TAF
KATL 241123Z 2412/2518 04005KT P6SM FEW150 BKN250
     FM241600 VRB03KT P6SM SCT150
     FM242000 VRB03KT P6SM SCT150
     FM250000 33005KT P6SM SKC=



000
FTUS42 KFFC 240900 AAB
TAFATL
TAF AMD
KATL 240938Z 2410/2512 32005KT P6SM BKN180 BKN250
     FM241600 32005KT P6SM SCT150
     FM250000 33005KT P6SM SKC=



000
FTUS42 KFFC 240700 AAA
TAFATL
TAF AMD
KATL 240752Z 2408/2512 32005KT P6SM FEW150 BKN250
     FM241600 32005KT P6SM SCT150
     FM250000 33005KT P6SM SKC=



000
FTUS42 KFFC 240500
TAFCSG
TAF
KCSG 240525Z 2406/2506 00000KT P6SM SCT250
     FM241600 33004KT P6SM FEW200=



000
FTUS42 KFFC 240500
TAFAHN
TAF
KAHN 240525Z 2406/2506 00000KT P6SM SCT250
     FM241600 30003KT P6SM SCT200=



000
FTUS42 KFFC 240500
TAFFTY
TAF
KFTY 240525Z 2406/2506 00000KT P6SM BKN250
     FM241600 32003KT P6SM SCT150=



000
FTUS42 KFFC 240500
TAFMCN
TAF
KMCN 240525Z 2406/2506 00000KT P6SM SCT250
     FM241600 27003KT P6SM SCT200=



000
FTUS42 KFFC 240500
TAFRYY
TAF
KRYY 240525Z 2406/2506 31003KT P6SM BKN250
     FM241600 32005KT P6SM SCT150
      AMD NOT SKED TIL 241200=



000
FTUS42 KFFC 240500
TAFPDK
TAF
KPDK 240525Z 2406/2506 32003KT P6SM BKN250
     FM241600 32003KT P6SM SCT150=



000
FTUS42 KFFC 240500
TAFATL
TAF
KATL 240525Z 2406/2512 32004KT P6SM BKN250
     FM241600 32005KT P6SM SCT150
     FM250000 33005KT P6SM SKC=



000
FTUS42 KFFC 240300 AAB
TAFATL
TAF AMD
KATL 240330Z 2404/2506 32004KT P6SM BKN250
     FM241600 32005KT P6SM SCT150=



000
FTUS42 KFFC 240300 AAB
TAFATL
TAF AMD
KATL 240330Z 2404/2506 32004KT P6SM BKN250
     FM241600 32005KT P6SM SCT150=



000
FTUS42 KFFC 240100 AAA
TAFRYY
TAF AMD
KRYY 240143Z 2402/2424 31003KT P6SM BKN250
     FM241600 32005KT P6SM SCT150
      AMD NOT SKED 2404/2412=



000
FTUS42 KFFC 240100 AAA
TAFCSG
TAF AMD
KCSG 240143Z 2402/2424 00000KT P6SM SCT250
     FM241600 33004KT P6SM FEW200=



000
FTUS42 KFFC 240100 AAA
TAFATL
TAF AMD
KATL 240143Z 2402/2506 32004KT P6SM BKN250
     FM241600 32005KT P6SM SCT150=



000
FTUS42 KFFC 240100 AAA
TAFFTY
TAF AMD
KFTY 240143Z 2402/2424 00000KT P6SM BKN250
     FM241600 32003KT P6SM SCT150=



000
FTUS42 KFFC 232300
TAFAHN
TAF
KAHN 232320Z 2400/2424 00000KT P6SM SCT250
     FM241600 30003KT P6SM SCT200=



000
FTUS42 KFFC 232300
TAFATL
TAF
KATL 232320Z 2400/2506 32004KT P6SM BKN250
     FM241600 32005KT P6SM SCT150=



000
FTUS42 KFFC 232300
TAFCSG
TAF
KCSG 232320Z 2400/2424 33003KT P6SM SCT250
     FM241600 33004KT P6SM FEW200=



000
FTUS42 KFFC 232300
TAFFTY
TAF
KFTY 232320Z 2400/2424 33003KT P6SM BKN250
     FM241600 32003KT P6SM SCT150=



000
FTUS42 KFFC 232300
TAFRYY
TAF
KRYY 232320Z 2400/2424 33003KT P6SM BKN250
     FM241600 32005KT P6SM SCT150
      AMD NOT SKED 2404/2412=



000
FTUS42 KFFC 232300
TAFPDK
TAF
KPDK 232320Z 2400/2424 32003KT P6SM BKN250
     FM241600 32003KT P6SM SCT150=



000
FTUS42 KFFC 232300
TAFMCN
TAF
KMCN 232320Z 2400/2424 00000KT P6SM SCT250
     FM241600 27003KT P6SM SCT200=



000
FTUS42 KFFC 232100 AAB
TAFATL
TAF AMD
KATL 232132Z 2322/2424 31007KT P6SM BKN250
     FM240100 32003KT P6SM BKN200
     FM241600 32005KT P6SM SCT150=



000
FTUS42 KFFC 231900 AAA
TAFATL
TAF AMD
KATL 231942Z 2320/2424 30007KT P6SM FEW250
     FM240100 32003KT P6SM BKN200
     FM241600 32005KT P6SM SKC=



000
FTUS42 KFFC 231900 AAA
TAFATL
TAF AMD
KATL 231942Z 2320/2424 30007KT P6SM FEW250
     FM240100 32003KT P6SM BKN200
     FM241600 32005KT P6SM SKC=



000
FTUS42 KFFC 231700
TAFAHN
TAF
KAHN 231720Z 2318/2418 30004KT P6SM FEW250
     FM240000 00000KT P6SM SCT200
     FM241600 VRB03KT P6SM SKC=



000
FTUS42 KFFC 231700
TAFPDK
TAF
KPDK 231720Z 2318/2418 28005KT P6SM FEW250
     FM240100 00000KT P6SM BKN200
     FM241600 32003KT P6SM SKC=



000
FTUS42 KFFC 231700
TAFRYY
TAF
KRYY 231720Z 2318/2418 28008KT P6SM FEW250
     FM240100 00000KT P6SM BKN200
     FM241600 32005KT P6SM SKC=



000
FTUS42 KFFC 231700
TAFATL
TAF
KATL 231720Z 2318/2424 29006KT P6SM FEW250
     FM240100 32003KT P6SM BKN200
     FM241600 32005KT P6SM SKC=



000
FTUS42 KFFC 231700
TAFCSG
TAF
KCSG 231720Z 2318/2418 32004KT P6SM FEW250
     FM240000 00000KT P6SM SCT250
     FM241600 VRB03KT P6SM FEW200=



000
FTUS42 KFFC 231700
TAFMCN
TAF
KMCN 231720Z 2318/2418 31004KT P6SM FEW250
     FM240000 00000KT P6SM SCT250
     FM241600 17003KT P6SM FEW200=



000
FTUS42 KFFC 231700
TAFFTY
TAF
KFTY 231720Z 2318/2418 29005KT P6SM FEW250
     FM240100 00000KT P6SM BKN200
     FM241600 32003KT P6SM SKC=



000
FTUS42 KFFC 231500 AAB
TAFATL
TAF AMD
KATL 231545Z 2316/2418 30005KT P6SM FEW250
     FM240100 32003KT P6SM BKN200
     FM241600 30006KT P6SM SKC=



000
FTUS42 KFFC 231400 AAB
TAFRYY
TAF AMD
KRYY 231401Z 2314/2412 26006KT P6SM SCT004
      TEMPO 2314/2315 1SM BR BKN004
     FM231500 32006KT P6SM FEW250
     FM240100 00000KT P6SM BKN200=



000
FTUS42 KFFC 231300 AAA
TAFATL
TAF AMD
KATL 231359Z 2314/2418 33006KT P6SM FEW250
     FM240100 32003KT P6SM BKN200
     FM241600 30006KT P6SM SKC=



000
FTUS42 KFFC 231100 AAA
TAFRYY
TAF AMD
KRYY 231154Z 2312/2412 26004KT P6SM SKC
      TEMPO 2312/2314 2SM BR BKN004
     FM231600 32006KT P6SM FEW250
     FM240100 00000KT P6SM BKN200=



000
FTUS42 KFFC 231100
TAFMCN
TAF
KMCN 231136Z 2312/2412 28003KT 6SM BR SKC
     FM231600 33004KT P6SM FEW250
     FM240100 00000KT P6SM BKN200=



000
FTUS42 KFFC 231100
TAFAHN
TAF
KAHN 231136Z 2312/2412 00000KT P6SM SKC
     FM231600 28005KT P6SM FEW250
     FM240100 00000KT P6SM BKN200=



000
FTUS42 KFFC 231100
TAFFTY
TAF
KFTY 231136Z 2312/2412 00000KT P6SM SKC
     FM231600 32005KT P6SM FEW250
     FM240100 00000KT P6SM BKN200=



000
FTUS42 KFFC 231100
TAFATL
TAF
KATL 231136Z 2312/2418 33005KT P6SM SKC
     FM231600 33007KT P6SM FEW250
     FM240100 32003KT P6SM BKN200
     FM241600 30006KT P6SM SKC=



000
FTUS42 KFFC 231100
TAFCSG
TAF
KCSG 231136Z 2312/2412 02003KT P6SM SKC
     FM231800 34004KT P6SM FEW250
     FM240100 00000KT P6SM BKN200=



000
FTUS42 KFFC 231100
TAFPDK
TAF
KPDK 231136Z 2312/2412 33003KT P6SM SKC
     FM231600 32006KT P6SM FEW250
     FM240100 00000KT P6SM BKN200=



000
FTUS42 KFFC 231100
TAFRYY
TAF
KRYY 231136Z 2312/2412 00000KT P6SM SKC
     FM231600 32006KT P6SM FEW250
     FM240100 00000KT P6SM BKN200=



000
FTUS42 KFFC 230900 CCA
TAFATL
TAF COR
KATL 230959Z 2310/2412 33006KT P6SM SKC
     FM231600 33007KT P6SM FEW250
     FM240100 32003KT P6SM SCT200=



000
FTUS42 KFFC 230900 CCA
TAFATL
TAF COR
KATL 230959Z 2310/2412 33006KT P6SM SKC
     FM231600 33007KT P6SM FEW250
     FM240100 32003KT P6SM SCT200=



000
FTUS42 KFFC 230900 AAB
TAFATL
TAF AMD
KATL 230957Z 2310/2412 33007KT P6SM SKC
     FM240100 32003KT P6SM SCT200=



000
FTUS42 KFFC 230900 AAB
TAFATL
TAF AMD
KATL 230957Z 2310/2412 33007KT P6SM SKC
     FM240100 32003KT P6SM SCT200=



000
FTUS42 KFFC 230800 AAA
TAFMCN
TAF AMD
KMCN 230843Z 2309/2406 00000KT 6SM BR SKC
      TEMPO 2309/2311 4SM BR SKC
     FM231600 33004KT P6SM SKC
     FM240100 00000KT P6SM SCT250=



000
FTUS42 KFFC 230700 AAA
TAFATL
TAF AMD
KATL 230749Z 2308/2412 33006KT P6SM SKC
     FM231700 32007KT P6SM SKC
     FM240100 32003KT P6SM SCT250=



000
FTUS42 KFFC 230500
TAFPDK
TAF
KPDK 230538Z 2306/2406 33003KT P6SM SKC
     FM231600 32006KT P6SM SKC
     FM240100 00000KT P6SM SCT250=



000
FTUS42 KFFC 230500
TAFFTY
TAF
KFTY 230538Z 2306/2406 00000KT P6SM SKC
     FM231600 32005KT P6SM SKC
     FM240100 00000KT P6SM SCT250=



000
FTUS42 KFFC 230500
TAFAHN
TAF
KAHN 230538Z 2306/2406 00000KT P6SM SKC
     FM231600 28005KT P6SM SKC
     FM240100 00000KT P6SM SCT250=



000
FTUS42 KFFC 230500
TAFCSG
TAF
KCSG 230538Z 2306/2406 02004KT P6SM SKC
     FM240100 00000KT P6SM SCT250=



000
FTUS42 KFFC 230500
TAFRYY
TAF
KRYY 230538Z 2306/2406 00000KT P6SM SKC
     FM231600 32006KT P6SM SKC
     FM240100 00000KT P6SM SCT250
      AMD NOT SKED TIL 231200=



000
FTUS42 KFFC 230500
TAFMCN
TAF
KMCN 230538Z 2306/2406 00000KT 4SM BR SKC
      TEMPO 2306/2308 6SM BR SKC
     FM231600 33004KT P6SM SKC
     FM240100 00000KT P6SM SCT250=



000
FTUS42 KFFC 230500
TAFATL
TAF
KATL 230538Z 2306/2412 33006KT P6SM SKC
     FM231700 32007KT P6SM SKC
     FM240100 32003KT P6SM SCT250=



000
FTUS42 KFFC 230300 AAA
TAFCSG
TAF AMD
KCSG 230332Z 2304/2324 03004KT P6SM SKC=



000
FTUS42 KFFC 230300 AAA
TAFMCN
TAF AMD
KMCN 230332Z 2304/2324 00000KT 4SM BR SKC
      TEMPO 2304/2308 6SM BR SKC
     FM231600 35003KT P6SM SKC=



000
FTUS42 KFFC 230300 AAA
TAFPDK
TAF AMD
KPDK 230332Z 2304/2324 33003KT P6SM SKC
     FM231600 32005KT P6SM SKC=



000
FTUS42 KFFC 230300 AAB
TAFATL
TAF AMD
KATL 230332Z 2304/2406 33006KT P6SM SKC
     FM231600 32005KT P6SM FEW250=



000
FTUS42 KFFC 230100 AAA
TAFATL
TAF AMD
KATL 230130Z 2302/2406 33008KT P6SM SKC
     FM231600 32005KT P6SM FEW250=



000
FTUS42 KFFC 230100 AAA
TAFATL
TAF AMD
KATL 230130Z 2302/2406 33008KT P6SM SKC
     FM231600 32005KT P6SM FEW250=



000
FTUS42 KFFC 222300
TAFMCN
TAF
KMCN 222323Z 2300/2324 02004KT P6SM SKC
     FM230200 00000KT P6SM SKC
     FM231600 35003KT P6SM SKC=



000
FTUS42 KFFC 222300
TAFFTY
TAF
KFTY 222323Z 2300/2324 33004KT P6SM SKC
     FM230200 00000KT P6SM SKC
     FM231600 32004KT P6SM SKC=



000
FTUS42 KFFC 222300
TAFATL
TAF
KATL 222323Z 2300/2406 33006KT P6SM SKC
     FM231600 32005KT P6SM FEW250=



000
FTUS42 KFFC 222300
TAFRYY
TAF
KRYY 222323Z 2300/2324 33006KT P6SM SKC
     FM230200 00000KT P6SM SKC
     FM231600 32005KT P6SM SKC
      AMD NOT SKED 2304/2312=



000
FTUS42 KFFC 222300
TAFCSG
TAF
KCSG 222323Z 2300/2324 02004KT P6SM SKC
     FM230200 00000KT P6SM SKC
     FM231600 04004KT P6SM SKC=



000
FTUS42 KFFC 222300
TAFAHN
TAF
KAHN 222323Z 2300/2324 00000KT P6SM SKC
     FM231600 30004KT P6SM SKC=



000
FTUS42 KFFC 222300
TAFPDK
TAF
KPDK 222323Z 2300/2324 31006KT P6SM SKC
     FM230200 00000KT P6SM SKC
     FM231600 32004KT P6SM SKC=



000
FTUS42 KFFC 222100 AAB
TAFATL
TAF AMD
KATL 222132Z 2221/2324 35009KT P6SM SKC
     FM230100 35004KT P6SM SKC
     FM231600 32005KT P6SM FEW250=



000
FTUS42 KFFC 222100 AAA
TAFFTY
TAF AMD
KFTY 222132Z 2221/2318 33009KT P6SM SKC
     FM230100 00000KT P6SM SKC
     FM231600 32004KT P6SM SKC=



000
FTUS42 KFFC 221900 AAA
TAFATL
TAF AMD
KATL 221951Z 2220/2324 34010KT P6SM SKC
     FM230100 35004KT P6SM SKC
     FM231600 32005KT P6SM FEW250=



000
FTUS42 KFFC 221700
TAFAHN
TAF
KAHN 221722Z 2218/2318 36006KT P6SM SKC
     FM230000 00000KT P6SM SKC
     FM231600 30004KT P6SM SKC=



000
FTUS42 KFFC 221700
TAFCSG
TAF
KCSG 221722Z 2218/2318 35007KT P6SM SKC
     FM230000 00000KT P6SM SKC
     FM231600 04004KT P6SM SKC=



000
FTUS42 KFFC 221700
TAFMCN
TAF
KMCN 221722Z 2218/2318 02006KT P6SM SKC
     FM230000 00000KT P6SM SKC
     FM231600 35003KT P6SM SKC=



000
FTUS42 KFFC 221700
TAFMCN
TAF
KMCN 221722Z 2218/2318 02006KT P6SM SKC
     FM230000 00000KT P6SM SKC
     FM231600 35003KT P6SM SKC=



000
FTUS42 KFFC 221700
TAFRYY
TAF
KRYY 221722Z 2218/2318 36008KT P6SM SKC
     FM230100 00000KT P6SM SKC
     FM231600 32005KT P6SM SKC=



000
FTUS42 KFFC 221700
TAFCSG
TAF
KCSG 221722Z 2218/2318 35007KT P6SM SKC
     FM230000 00000KT P6SM SKC
     FM231600 04004KT P6SM SKC=



000
FTUS42 KFFC 221700
TAFAHN
TAF
KAHN 221722Z 2218/2318 36006KT P6SM SKC
     FM230000 00000KT P6SM SKC
     FM231600 30004KT P6SM SKC=



000
FTUS42 KFFC 221700
TAFFTY
TAF
KFTY 221722Z 2218/2318 36007KT P6SM SKC
     FM230100 00000KT P6SM SKC
     FM231600 32004KT P6SM SKC=



000
FTUS42 KFFC 221700
TAFRYY
TAF
KRYY 221722Z 2218/2318 36008KT P6SM SKC
     FM230100 00000KT P6SM SKC
     FM231600 32005KT P6SM SKC=



000
FTUS42 KFFC 221700
TAFATL
TAF
KATL 221722Z 2218/2324 35010G16KT P6SM SKC
     FM230100 35004KT P6SM SKC
     FM231600 32005KT P6SM FEW250=



000
FTUS42 KFFC 221700
TAFATL
TAF
KATL 221722Z 2218/2324 35010G16KT P6SM SKC
     FM230100 35004KT P6SM SKC
     FM231600 32005KT P6SM FEW250=



000
FTUS42 KFFC 221700
TAFFTY
TAF
KFTY 221722Z 2218/2318 36007KT P6SM SKC
     FM230100 00000KT P6SM SKC
     FM231600 32004KT P6SM SKC=



000
FTUS42 KFFC 221700
TAFPDK
TAF
KPDK 221722Z 2218/2318 36007KT P6SM SKC
     FM230100 00000KT P6SM SKC
     FM231600 32004KT P6SM SKC=



000
FTUS42 KFFC 221700
TAFPDK
TAF
KPDK 221722Z 2218/2318 36007KT P6SM SKC
     FM230100 00000KT P6SM SKC
     FM231600 32004KT P6SM SKC=



000
FTUS42 KFFC 221500 AAB
TAFATL
TAF AMD
KATL 221551Z 2216/2318 01010G16KT P6SM SKC
     FM222000 35010G16KT P6SM SKC
     FM230100 35003KT P6SM SKC
     FM231600 30005KT P6SM FEW250=



000
FTUS42 KFFC 221500 AAA
TAFCSG
TAF AMD
KCSG 221502Z 2215/2312 01008G16KT P6SM SKC
     FM230000 00000KT P6SM SKC=



000
FTUS42 KFFC 221400 AAA
TAFATL
TAF AMD
KATL 221406Z 2214/2318 35010G16KT P6SM SKC
     FM230100 35003KT P6SM SKC
     FM231600 30005KT P6SM FEW250=



000
FTUS42 KFFC 221100
TAFPDK
TAF
KPDK 221131Z 2212/2312 35009KT P6SM SKC
     FM230100 00000KT P6SM SKC=



000
FTUS42 KFFC 221100
TAFAHN
TAF
KAHN 221131Z 2212/2312 31004KT P6SM SKC
     FM221500 34006KT P6SM SKC
     FM230000 00000KT P6SM SKC=



000
FTUS42 KFFC 221100
TAFCSG
TAF
KCSG 221131Z 2212/2312 35004KT P6SM SKC
     FM221500 01007KT P6SM SKC
     FM230000 00000KT P6SM SKC=



000
FTUS42 KFFC 221100
TAFFTY
TAF
KFTY 221131Z 2212/2312 34004KT P6SM SKC
     FM221500 35007KT P6SM SKC
     FM230100 00000KT P6SM SKC=



000
FTUS42 KFFC 221100
TAFMCN
TAF
KMCN 221131Z 2212/2312 31005KT P6SM SKC
     FM221500 36006KT P6SM SKC
     FM230000 00000KT P6SM SKC=



000
FTUS42 KFFC 221100
TAFATL
TAF
KATL 221131Z 2212/2318 34011KT P6SM SKC
     FM230100 35003KT P6SM SKC
     FM231600 30005KT P6SM FEW250=



000
FTUS42 KFFC 221100
TAFRYY
TAF
KRYY 221131Z 2212/2312 34004KT P6SM SKC
     FM221500 35007KT P6SM SKC
     FM230100 00000KT P6SM SKC=



000
FTUS42 KFFC 220900 AAB
TAFATL
TAF AMD
KATL 220946Z 2210/2312 34007KT P6SM SKC
     FM230100 35003KT P6SM SKC=



000
FTUS42 KFFC 220900 AAB
TAFATL
TAF AMD
KATL 220946Z 2210/2312 34007KT P6SM SKC
     FM230100 35003KT P6SM SKC=



000
FTUS42 KFFC 220700 AAA
TAFATL
TAF AMD
KATL 220744Z 2208/2312 33007KT P6SM SKC
     FM230100 35003KT P6SM SKC=



000
FTUS42 KFFC 220500
TAFATL
TAF
KATL 220540Z 2206/2312 33007KT P6SM SKC
     FM230100 35003KT P6SM SKC=



000
FTUS42 KFFC 220500
TAFFTY
TAF
KFTY 220540Z 2206/2306 34004KT P6SM SKC
     FM221500 35007KT P6SM SKC
     FM230100 00000KT P6SM SKC=



000
FTUS42 KFFC 220500
TAFPDK
TAF
KPDK 220540Z 2206/2306 34004KT P6SM SKC
     FM221500 35007KT P6SM SKC
     FM230100 00000KT P6SM SKC=



000
FTUS42 KFFC 220500
TAFMCN
TAF
KMCN 220540Z 2206/2306 31005KT P6SM SKC
     FM221500 36006KT P6SM SKC
     FM230000 00000KT P6SM SKC=



000
FTUS42 KFFC 220500
TAFCSG
TAF
KCSG 220540Z 2206/2306 33003KT P6SM SKC
     FM221500 01007KT P6SM SKC
     FM230000 00000KT P6SM SKC=



000
FTUS42 KFFC 220500
TAFAHN
TAF
KAHN 220540Z 2206/2306 31004KT P6SM SKC
     FM221500 34006KT P6SM SKC
     FM230000 00000KT P6SM SKC=



000
FTUS42 KFFC 220500
TAFRYY
TAF
KRYY 220540Z 2206/2306 34004KT P6SM SKC
     FM221500 35007KT P6SM SKC
     FM230100 00000KT P6SM SKC
      AMD NOT SKED TIL 221200=



000
FTUS42 KFFC 220500
TAFATL
TAF
KATL 220540Z 2206/2312 33007KT P6SM SKC
     FM230100 35003KT P6SM SKC=



000
FTUS42 KFFC 220500
TAFMCN
TAF
KMCN 220540Z 2206/2306 31005KT P6SM SKC
     FM221500 36006KT P6SM SKC
     FM230000 00000KT P6SM SKC=



000
FTUS42 KFFC 220500
TAFAHN
TAF
KAHN 220540Z 2206/2306 31004KT P6SM SKC
     FM221500 34006KT P6SM SKC
     FM230000 00000KT P6SM SKC=



000
FTUS42 KFFC 220500
TAFRYY
TAF
KRYY 220540Z 2206/2306 34004KT P6SM SKC
     FM221500 35007KT P6SM SKC
     FM230100 00000KT P6SM SKC
      AMD NOT SKED TIL 221200=



000
FTUS42 KFFC 220500
TAFFTY
TAF
KFTY 220540Z 2206/2306 34004KT P6SM SKC
     FM221500 35007KT P6SM SKC
     FM230100 00000KT P6SM SKC=



000
FTUS42 KFFC 220500
TAFPDK
TAF
KPDK 220540Z 2206/2306 34004KT P6SM SKC
     FM221500 35007KT P6SM SKC
     FM230100 00000KT P6SM SKC=



000
FTUS42 KFFC 220500
TAFCSG
TAF
KCSG 220540Z 2206/2306 33003KT P6SM SKC
     FM221500 01007KT P6SM SKC
     FM230000 00000KT P6SM SKC=



000
FTUS42 KFFC 220300 AAB
TAFATL
TAF AMD
KATL 220330Z 2204/2306 33007KT P6SM SKC=



000
FTUS42 KFFC 220100 AAA
TAFATL
TAF AMD
KATL 220133Z 2202/2306 33008KT P6SM SKC=



000
FTUS42 KFFC 212300
TAFATL
TAF
KATL 212334Z 2200/2306 33008KT P6SM SKC=



000
FTUS42 KFFC 212300
TAFMCN
TAF
KMCN 212334Z 2200/2224 31005KT P6SM SKC
     FM221500 01007KT P6SM SKC=



000
FTUS42 KFFC 212300
TAFAHN
TAF
KAHN 212334Z 2200/2224 31004KT P6SM SKC
     FM221500 35007KT P6SM SKC=



000
FTUS42 KFFC 212300
TAFRYY
TAF
KRYY 212334Z 2200/2224 34004KT P6SM SKC
     FM221500 35007KT P6SM SKC
      AMD NOT SKED 2204/2212=



000
FTUS42 KFFC 212300
TAFFTY
TAF
KFTY 212334Z 2200/2224 33004KT P6SM SKC
     FM221500 35007KT P6SM SKC=



000
FTUS42 KFFC 212300
TAFPDK
TAF
KPDK 212334Z 2200/2224 33004KT P6SM SKC
     FM221500 35007KT P6SM SKC=



000
FTUS42 KFFC 212300
TAFCSG
TAF
KCSG 212334Z 2200/2224 33004KT P6SM SKC
     FM221500 02007KT P6SM SKC=



000
FTUS42 KFFC 212100 AAA
TAFMCN
TAF AMD
KMCN 212158Z 2122/2218 29009KT P6SM SKC
     FM220100 31003KT P6SM SKC
     FM221500 01006KT P6SM SKC=



000
FTUS42 KFFC 212100 AAB
TAFATL
TAF AMD
KATL 212158Z 2122/2224 30012KT P6SM FEW050
     FM220000 33008KT P6SM SKC=



000
FTUS42 KFFC 212100 AAA
TAFMCN
TAF AMD
KMCN 212158Z 2122/2218 29009KT P6SM SKC
     FM220100 31003KT P6SM SKC
     FM221500 01006KT P6SM SKC=



000
FTUS42 KFFC 212100 AAB
TAFATL
TAF AMD
KATL 212158Z 2122/2224 30012KT P6SM FEW050
     FM220000 33008KT P6SM SKC=



000
FTUS42 KFFC 211900 AAA
TAFATL
TAF AMD
KATL 211942Z 2120/2224 30010G20KT P6SM FEW050
     FM220000 33008KT P6SM SKC=



000
FTUS42 KFFC 211700
TAFCSG
TAF
KCSG 211720Z 2118/2218 34008G15KT P6SM SKC
     FM220000 34003KT P6SM SKC
     FM221500 03007KT P6SM SKC=



000
FTUS42 KFFC 211700
TAFRYY
TAF
KRYY 211720Z 2118/2218 31009G15KT P6SM FEW040
     FM220000 33003KT P6SM SKC
     FM221500 35007KT P6SM SKC=



000
FTUS42 KFFC 211700
TAFPDK
TAF
KPDK 211720Z 2118/2218 30009G14KT P6SM FEW040
     FM220000 33003KT P6SM SKC
     FM221500 35007KT P6SM SKC=



000
FTUS42 KFFC 211700
TAFATL
TAF
KATL 211720Z 2118/2224 30010G17KT P6SM FEW040
     FM220000 33008KT P6SM SKC=



000
FTUS42 KFFC 211700
TAFAHN
TAF
KAHN 211720Z 2118/2218 31010G16KT P6SM FEW040
     FM220000 30006KT P6SM SKC
     FM220900 34004KT 5SM BR SKC
     FM221400 35006KT P6SM SKC=



000
FTUS42 KFFC 211700
TAFMCN
TAF
KMCN 211720Z 2118/2218 33008G15KT P6SM SKC
     FM220000 31003KT P6SM SKC
     FM221500 01006KT P6SM SKC=



000
FTUS42 KFFC 211700
TAFFTY
TAF
KFTY 211720Z 2118/2218 32009G14KT P6SM FEW040
     FM220000 33003KT P6SM SKC
     FM221500 35007KT P6SM SKC=



000
FTUS42 KFFC 211500 AAB
TAFATL
TAF AMD
KATL 211536Z 2116/2218 32010G17KT P6SM FEW030
     FM220000 33007KT P6SM SKC=



000
FTUS42 KFFC 211500 AAB
TAFATL
TAF AMD
KATL 211536Z 2116/2218 32010G17KT P6SM FEW030
     FM220000 33007KT P6SM SKC=



    US Dept of Commerce
    National Oceanic and Atmospheric Administration
    National Weather Service
    1325 East West Highway
    Silver Spring, MD 20910
    Page Author: NWS Internet Services Team
Disclaimer
Information Quality
Credits
Glossary
Privacy Policy
Freedom of Information Act (FOIA)
About Us
Career Opportunities